Time,TemperatureF,DewpointF,PressureIn,WindDirection,WindDirectionDegrees,WindSpeedMPH,WindSpeedGustMPH,Humidity,HourlyPrecipIn,Conditions,Clouds,dailyrainin,SoftwareType,DateUTC
2013-08-03 00:01:00,65.7,63.6,30.02,ENE,71,0.0,0.0,93,0.00,,,0.00,WeatherCatV1.20B785,2013-08-03 04:01:00,
2013-08-03 00:06:00,65.6,63.5,30.02,ENE,71,0.0,0.0,93,0.00,,,0.00,WeatherCatV1.20B785,2013-08-03 04:06:00,
2013-08-03 00:11:00,65.6,63.8,30.02,ENE,71,0.0,0.0,94,0.00,,,0.00,WeatherCatV1.20B785,2013-08-03 04:11:00,
2013-08-03 00:16:00,65.6,63.8,30.02,ENE,71,0.0,0.0,94,0.00,,,0.00,WeatherCatV1.20B785,2013-08-03 04:16:00,
2013-08-03 00:21:00,65.6,63.8,30.02,ENE,71,0.0,0.0,94,0.00,,,0.00,WeatherCatV1.20B785,2013-08-03 04:21:00,
2013-08-03 00:26:00,65.5,63.7,30.02,ENE,71,0.0,0.0,94,0.00,,,0.00,WeatherCatV1.20B785,2013-08-03 04:26:00,
2013-08-03 00:31:00,65.4,63.6,30.01,ENE,71,0.0,0.0,94,0.00,,,0.00,WeatherCatV1.20B785,2013-08-03 04:31:00,
2013-08-03 00:36:00,65.3,63.8,30.01,ENE,71,0.0,0.0,95,0.00,,,0.00,WeatherCatV1.20B785,2013-08-03 04:36:00,
2013-08-03 00:41:00,65.3,63.5,30.01,ENE,71,0.0,0.0,94,0.00,,,0.00,WeatherCatV1.20B785,2013-08-03 04:41:00,
2013-08-03 00:46:00,65.3,63.8,30.02,ENE,71,0.0,0.0,95,0.00,,,0.00,WeatherCatV1.20B785,2013-08-03 04:46:00,
2013-08-03 00:51:00,65.3,63.5,30.02,ENE,71,0.0,0.0,94,0.00,,,0.00,WeatherCatV1.20B785,2013-08-03 04:51:00,
2013-08-03 00:56:00,65.2,63.7,30.01,ENE,71,0.0,0.0,95,0.00,,,0.00,WeatherCatV1.20B785,2013-08-03 04:56:00,
2013-08-03 01:01:00,65.2,63.7,30.01,ENE,71,0.0,0.0,95,0.00,,,0.00,WeatherCatV1.20B785,2013-08-03 05:01:00,
2013-08-03 01:06:00,65.0,63.5,30.01,ENE,71,0.0,0.0,95,0.00,,,0.00,WeatherCatV1.20B785,2013-08-03 05:06:00,
2013-08-03 01:11:00,64.9,63.4,30.01,ENE,71,0.0,0.0,95,0.00,,,0.00,WeatherCatV1.20B785,2013-08-03 05:11:00,
2013-08-03 01:16:00,64.9,63.4,30.01,ENE,71,0.0,0.0,95,0.00,,,0.00,WeatherCatV1.20B785,2013-08-03 05:16:00,
2013-08-03 01:21:00,64.8,63.3,30.01,ENE,71,0.0,0.0,95,0.00,,,0.00,WeatherCatV1.20B785,2013-08-03 05:21:00,
2013-08-03 01:26:00,64.7,63.2,30.01,ENE,71,0.0,0.0,95,0.00,,,0.00,WeatherCatV1.20B785,2013-08-03 05:26:00,
2013-08-03 01:31:00,64.6,63.1,30.01,ENE,71,0.0,0.0,95,0.00,,,0.00,WeatherCatV1.20B785,2013-08-03 05:31:00,
2013-08-03 01:36:00,64.5,63.3,30.01,ENE,71,0.0,0.0,96,0.00,,,0.00,WeatherCatV1.20B785,2013-08-03 05:36:00,
2013-08-03 01:41:00,64.6,63.4,30.01,ENE,71,0.0,0.0,96,0.00,,,0.00,WeatherCatV1.20B785,2013-08-03 05:41:00,
2013-08-03 01:46:00,64.7,63.5,30.01,ENE,71,0.0,0.0,96,0.00,,,0.00,WeatherCatV1.20B785,2013-08-03 05:46:00,
2013-08-03 01:51:00,64.6,63.4,30.01,ENE,71,0.0,0.0,96,0.00,,,0.00,WeatherCatV1.20B785,2013-08-03 05:51:00,
2013-08-03 01:56:00,64.5,63.0,30.01,ENE,71,0.0,0.0,95,0.00,,,0.00,WeatherCatV1.20B785,2013-08-03 05:56:00,
2013-08-03 02:01:00,64.5,63.3,30.01,ENE,71,0.0,0.0,96,0.00,,,0.00,WeatherCatV1.20B785,2013-08-03 06:01:00,
2013-08-03 02:06:00,64.5,63.3,30.00,ENE,71,0.0,0.0,96,0.00,,,0.00,WeatherCatV1.20B785,2013-08-03 06:06:00,
2013-08-03 02:11:00,64.4,63.2,30.01,ENE,71,0.0,0.0,96,0.00,,,0.00,WeatherCatV1.20B785,2013-08-03 06:11:00,
2013-08-03 02:16:00,64.3,63.1,30.01,ENE,71,0.0,0.0,96,0.00,,,0.00,WeatherCatV1.20B785,2013-08-03 06:16:00,
2013-08-03 02:21:00,64.1,62.9,30.01,ENE,71,0.0,0.0,96,0.00,,,0.00,WeatherCatV1.20B785,2013-08-03 06:21:00,
2013-08-03 02:26:00,64.0,62.8,30.01,ENE,71,0.0,0.0,96,0.00,,,0.00,WeatherCatV1.20B785,2013-08-03 06:26:00,
2013-08-03 02:31:00,64.0,62.8,30.00,ENE,71,0.0,0.0,96,0.00,,,0.00,WeatherCatV1.20B785,2013-08-03 06:31:00,
2013-08-03 02:36:00,63.9,62.7,30.00,ENE,71,0.0,0.0,96,0.00,,,0.00,WeatherCatV1.20B785,2013-08-03 06:36:00,
2013-08-03 02:41:00,63.7,62.5,30.00,ENE,71,0.0,0.0,96,0.00,,,0.00,WeatherCatV1.20B785,2013-08-03 06:41:00,
2013-08-03 02:46:00,63.7,62.5,30.00,ENE,71,0.0,0.0,96,0.00,,,0.00,WeatherCatV1.20B785,2013-08-03 06:46:00,
2013-08-03 02:51:00,63.6,62.4,30.00,ENE,71,0.0,0.0,96,0.00,,,0.00,WeatherCatV1.20B785,2013-08-03 06:51:00,
2013-08-03 02:56:00,63.5,62.3,30.00,ENE,71,0.0,0.0,96,0.00,,,0.00,WeatherCatV1.20B785,2013-08-03 06:56:00,
2013-08-03 03:01:00,63.5,62.6,30.00,ENE,71,0.0,0.0,97,0.00,,,0.00,WeatherCatV1.20B785,2013-08-03 07:01:00,
2013-08-03 03:06:00,63.7,62.8,30.00,ENE,71,0.0,0.0,97,0.00,,,0.00,WeatherCatV1.20B785,2013-08-03 07:06:00,
2013-08-03 03:11:00,63.7,62.8,30.00,ENE,71,0.0,0.0,97,0.00,,,0.00,WeatherCatV1.20B785,2013-08-03 07:11:00,
2013-08-03 03:16:00,63.6,62.4,30.00,ENE,71,0.0,0.0,96,0.00,,,0.00,WeatherCatV1.20B785,2013-08-03 07:16:00,
2013-08-03 03:21:00,63.4,62.2,30.00,ENE,71,0.0,0.0,96,0.00,,,0.00,WeatherCatV1.20B785,2013-08-03 07:21:00,
2013-08-03 03:26:00,63.2,62.0,30.00,ENE,71,0.0,0.0,96,0.00,,,0.00,WeatherCatV1.20B785,2013-08-03 07:26:00,
2013-08-03 03:31:00,63.2,62.3,30.00,ENE,71,0.0,0.0,97,0.00,,,0.00,WeatherCatV1.20B785,2013-08-03 07:31:00,
2013-08-03 03:36:00,63.1,62.2,29.99,ENE,71,0.0,0.0,97,0.00,,,0.00,WeatherCatV1.20B785,2013-08-03 07:36:00,
2013-08-03 03:41:00,63.1,62.2,29.99,ENE,71,0.0,0.0,97,0.00,,,0.00,WeatherCatV1.20B785,2013-08-03 07:41:00,
2013-08-03 03:46:00,63.0,62.1,29.99,ENE,71,0.0,0.0,97,0.00,,,0.00,WeatherCatV1.20B785,2013-08-03 07:46:00,
2013-08-03 03:51:00,63.0,62.1,29.99,ENE,71,0.0,0.0,97,0.00,,,0.00,WeatherCatV1.20B785,2013-08-03 07:51:00,
2013-08-03 03:56:00,62.8,61.9,30.00,ENE,71,0.0,0.0,97,0.00,,,0.00,WeatherCatV1.20B785,2013-08-03 07:56:00,
2013-08-03 04:01:00,62.9,62.0,30.00,ENE,71,0.0,0.0,97,0.00,,,0.00,WeatherCatV1.20B785,2013-08-03 08:01:00,
2013-08-03 04:06:00,62.7,61.8,30.00,ENE,71,0.0,0.0,97,0.00,,,0.00,WeatherCatV1.20B785,2013-08-03 08:06:00,
2013-08-03 04:11:00,62.8,61.9,29.99,ENE,71,0.0,0.0,97,0.00,,,0.00,WeatherCatV1.20B785,2013-08-03 08:11:00,
2013-08-03 04:16:00,62.8,61.9,29.99,ENE,71,0.0,0.0,97,0.00,,,0.00,WeatherCatV1.20B785,2013-08-03 08:16:00,
2013-08-03 04:21:00,62.6,61.7,30.00,ENE,71,0.0,0.0,97,0.00,,,0.00,WeatherCatV1.20B785,2013-08-03 08:21:00,
2013-08-03 04:26:00,62.6,61.7,30.00,ENE,71,0.0,0.0,97,0.00,,,0.00,WeatherCatV1.20B785,2013-08-03 08:26:00,
2013-08-03 04:31:00,62.4,61.5,30.00,ENE,71,0.0,0.0,97,0.00,,,0.00,WeatherCatV1.20B785,2013-08-03 08:31:00,
2013-08-03 04:36:00,62.6,61.7,30.00,ENE,71,0.0,0.0,97,0.00,,,0.00,WeatherCatV1.20B785,2013-08-03 08:36:00,
2013-08-03 04:41:00,62.6,61.7,30.00,ENE,71,0.0,0.0,97,0.00,,,0.00,WeatherCatV1.20B785,2013-08-03 08:41:00,
2013-08-03 04:46:00,62.6,61.7,30.00,ENE,71,0.0,0.0,97,0.00,,,0.00,WeatherCatV1.20B785,2013-08-03 08:46:00,
2013-08-03 04:51:00,62.5,61.6,30.00,ENE,71,0.0,0.0,97,0.00,,,0.00,WeatherCatV1.20B785,2013-08-03 08:51:00,
2013-08-03 04:56:00,62.5,61.6,30.00,ENE,71,0.0,0.0,97,0.00,,,0.00,WeatherCatV1.20B785,2013-08-03 08:56:00,
2013-08-03 05:01:00,62.3,61.4,29.99,ENE,71,0.0,0.0,97,0.00,,,0.00,WeatherCatV1.20B785,2013-08-03 09:01:00,
2013-08-03 05:06:00,62.2,61.3,30.00,ENE,71,0.0,0.0,97,0.00,,,0.00,WeatherCatV1.20B785,2013-08-03 09:06:00,
2013-08-03 05:11:00,62.1,61.2,29.99,ENE,71,0.0,0.0,97,0.00,,,0.00,WeatherCatV1.20B785,2013-08-03 09:11:00,
2013-08-03 05:16:00,62.1,61.2,30.00,ENE,71,0.0,0.0,97,0.00,,,0.00,WeatherCatV1.20B785,2013-08-03 09:16:00,
2013-08-03 05:21:00,62.1,61.2,30.00,ENE,71,0.0,0.0,97,0.00,,,0.00,WeatherCatV1.20B785,2013-08-03 09:21:00,
2013-08-03 05:26:00,62.1,61.2,30.00,ENE,71,0.0,0.0,97,0.00,,,0.00,WeatherCatV1.20B785,2013-08-03 09:26:00,
2013-08-03 05:31:00,62.1,61.2,30.00,ENE,71,0.0,0.0,97,0.00,,,0.00,WeatherCatV1.20B785,2013-08-03 09:31:00,
2013-08-03 05:36:00,62.0,61.1,30.00,ENE,71,0.0,0.0,97,0.00,,,0.00,WeatherCatV1.20B785,2013-08-03 09:36:00,
2013-08-03 05:41:00,62.0,61.1,30.00,ENE,71,0.0,0.0,97,0.00,,,0.00,WeatherCatV1.20B785,2013-08-03 09:41:00,
2013-08-03 05:46:00,62.1,61.5,30.00,ENE,71,0.0,0.0,98,0.00,,,0.00,WeatherCatV1.20B785,2013-08-03 09:46:00,
2013-08-03 05:51:00,62.2,61.6,30.00,ENE,71,0.0,0.0,98,0.00,,,0.00,WeatherCatV1.20B785,2013-08-03 09:51:00,
2013-08-03 05:56:00,62.2,61.6,30.00,ENE,71,0.0,0.0,98,0.00,,,0.00,WeatherCatV1.20B785,2013-08-03 09:56:00,
2013-08-03 06:01:00,62.4,61.8,30.00,ENE,71,0.0,0.0,98,0.00,,,0.00,WeatherCatV1.20B785,2013-08-03 10:01:00,
2013-08-03 06:06:00,62.5,61.9,30.00,ENE,71,0.0,0.0,98,0.00,,,0.00,WeatherCatV1.20B785,2013-08-03 10:06:00,
2013-08-03 06:11:00,62.6,62.0,30.01,ENE,71,0.0,0.0,98,0.00,,,0.00,WeatherCatV1.20B785,2013-08-03 10:11:00,
2013-08-03 06:16:00,62.8,62.2,30.01,ENE,71,0.0,0.0,98,0.00,,,0.00,WeatherCatV1.20B785,2013-08-03 10:16:00,
2013-08-03 06:21:00,62.8,62.2,30.01,ENE,71,0.0,0.0,98,0.00,,,0.00,WeatherCatV1.20B785,2013-08-03 10:21:00,
2013-08-03 06:26:00,62.9,62.3,30.01,ENE,71,0.0,0.0,98,0.00,,,0.00,WeatherCatV1.20B785,2013-08-03 10:26:00,
2013-08-03 06:31:00,62.9,62.3,30.01,ENE,71,0.0,0.0,98,0.00,,,0.00,WeatherCatV1.20B785,2013-08-03 10:31:00,
2013-08-03 06:36:00,63.1,62.5,30.01,ENE,71,0.0,0.0,98,0.00,,,0.00,WeatherCatV1.20B785,2013-08-03 10:36:00,
2013-08-03 06:41:00,63.2,62.6,30.01,ENE,71,0.0,0.0,98,0.00,,,0.00,WeatherCatV1.20B785,2013-08-03 10:41:00,
2013-08-03 06:46:00,63.2,62.6,30.01,ENE,71,0.0,0.0,98,0.00,,,0.00,WeatherCatV1.20B785,2013-08-03 10:46:00,
2013-08-03 06:51:00,63.3,62.7,30.00,ENE,71,0.0,0.0,98,0.00,,,0.00,WeatherCatV1.20B785,2013-08-03 10:51:00,
2013-08-03 06:56:00,63.3,62.7,30.00,ENE,71,0.0,0.0,98,0.00,,,0.00,WeatherCatV1.20B785,2013-08-03 10:56:00,
2013-08-03 07:01:00,63.4,62.8,30.00,ENE,71,0.0,0.0,98,0.00,,,0.00,WeatherCatV1.20B785,2013-08-03 11:01:00,
2013-08-03 07:06:00,63.3,62.7,30.00,ENE,71,0.0,0.0,98,0.00,,,0.00,WeatherCatV1.20B785,2013-08-03 11:06:00,
2013-08-03 07:11:00,63.3,62.7,30.00,ENE,71,0.0,0.0,98,0.00,,,0.00,WeatherCatV1.20B785,2013-08-03 11:11:00,
2013-08-03 07:16:00,63.3,62.7,30.00,ENE,71,0.0,0.0,98,0.00,,,0.00,WeatherCatV1.20B785,2013-08-03 11:16:00,
2013-08-03 07:21:00,63.4,62.8,30.00,ENE,71,0.0,0.0,98,0.00,,,0.00,WeatherCatV1.20B785,2013-08-03 11:21:00,
2013-08-03 07:26:00,63.4,62.8,30.00,ENE,71,0.0,0.0,98,0.00,,,0.00,WeatherCatV1.20B785,2013-08-03 11:26:00,
2013-08-03 07:31:00,63.4,62.8,30.00,ENE,71,0.0,0.0,98,0.00,,,0.00,WeatherCatV1.20B785,2013-08-03 11:31:00,
2013-08-03 07:36:00,63.4,62.8,30.00,ENE,71,0.0,0.0,98,0.00,,,0.00,WeatherCatV1.20B785,2013-08-03 11:36:00,
2013-08-03 07:41:00,63.4,62.8,30.00,ENE,71,0.0,0.0,98,0.00,,,0.00,WeatherCatV1.20B785,2013-08-03 11:41:00,
2013-08-03 07:46:00,63.4,62.8,30.01,ENE,71,0.0,0.0,98,0.00,,,0.00,WeatherCatV1.20B785,2013-08-03 11:46:00,
2013-08-03 07:51:00,63.5,62.9,30.00,ENE,71,0.0,0.0,98,0.00,,,0.00,WeatherCatV1.20B785,2013-08-03 11:51:00,
2013-08-03 07:56:00,63.5,62.9,30.00,ENE,71,0.0,0.0,98,0.00,,,0.00,WeatherCatV1.20B785,2013-08-03 11:56:00,
2013-08-03 08:01:00,63.6,63.0,30.00,ENE,71,0.0,0.0,98,0.00,,,0.00,WeatherCatV1.20B785,2013-08-03 12:01:00,
2013-08-03 08:06:00,63.8,63.2,30.01,ENE,71,0.0,0.0,98,0.00,,,0.00,WeatherCatV1.20B785,2013-08-03 12:06:00,
2013-08-03 08:11:00,63.9,63.3,30.01,ENE,71,0.0,0.0,98,0.00,,,0.00,WeatherCatV1.20B785,2013-08-03 12:11:00,
2013-08-03 08:16:00,64.0,63.4,30.01,ENE,71,0.0,0.0,98,0.00,,,0.00,WeatherCatV1.20B785,2013-08-03 12:16:00,
2013-08-03 08:21:00,64.0,63.4,30.01,ENE,71,0.0,0.0,98,0.00,,,0.00,WeatherCatV1.20B785,2013-08-03 12:21:00,
2013-08-03 08:26:00,64.2,63.6,30.01,ENE,71,0.0,0.0,98,0.00,,,0.00,WeatherCatV1.20B785,2013-08-03 12:26:00,
2013-08-03 08:31:00,64.2,63.6,30.01,ENE,71,0.0,0.0,98,0.00,,,0.00,WeatherCatV1.20B785,2013-08-03 12:31:00,
2013-08-03 08:36:00,64.3,63.7,30.01,ENE,71,0.0,0.0,98,0.00,,,0.00,WeatherCatV1.20B785,2013-08-03 12:36:00,
2013-08-03 08:41:00,64.4,63.8,30.01,ENE,71,0.0,0.0,98,0.00,,,0.00,WeatherCatV1.20B785,2013-08-03 12:41:00,
2013-08-03 08:46:00,64.4,63.5,30.01,ENE,71,0.0,0.0,97,0.00,,,0.00,WeatherCatV1.20B785,2013-08-03 12:46:00,
2013-08-03 08:51:00,64.2,63.3,30.02,ENE,71,0.0,0.0,97,0.00,,,0.00,WeatherCatV1.20B785,2013-08-03 12:51:00,
2013-08-03 08:56:00,64.3,63.4,30.01,ENE,71,0.0,0.0,97,0.00,,,0.00,WeatherCatV1.20B785,2013-08-03 12:56:00,
2013-08-03 09:01:00,64.6,64.0,30.02,ENE,71,0.0,0.0,98,0.00,,,0.00,WeatherCatV1.20B785,2013-08-03 13:01:00,
2013-08-03 09:06:00,64.9,64.3,30.01,ENE,71,0.0,0.0,98,0.00,,,0.00,WeatherCatV1.20B785,2013-08-03 13:06:00,
2013-08-03 09:11:00,65.0,64.4,30.01,ENE,71,0.0,0.0,98,0.00,,,0.00,WeatherCatV1.20B785,2013-08-03 13:11:00,
2013-08-03 09:16:00,65.2,64.6,30.01,ENE,72,0.0,0.0,98,0.00,,,0.00,WeatherCatV1.20B785,2013-08-03 13:16:00,
2013-08-03 09:21:00,65.6,64.7,30.01,ENE,72,0.0,0.0,97,0.00,,,0.00,WeatherCatV1.20B785,2013-08-03 13:21:00,
2013-08-03 09:26:00,65.9,65.0,30.01,East,101,0.0,0.0,97,0.00,,,0.00,WeatherCatV1.20B785,2013-08-03 13:26:00,
2013-08-03 09:31:00,66.2,65.3,30.01,East,101,0.0,0.0,97,0.00,,,0.00,WeatherCatV1.20B785,2013-08-03 13:31:00,
2013-08-03 09:36:00,66.4,65.2,30.01,East,101,0.0,0.0,96,0.00,,,0.00,WeatherCatV1.20B785,2013-08-03 13:36:00,
2013-08-03 09:41:00,66.8,65.6,30.01,East,101,0.0,0.0,96,0.00,,,0.00,WeatherCatV1.20B785,2013-08-03 13:41:00,
2013-08-03 09:46:00,67.2,66.0,30.01,East,101,0.0,0.0,96,0.00,,,0.00,WeatherCatV1.20B785,2013-08-03 13:46:00,
2013-08-03 09:51:00,67.5,66.0,30.01,East,101,0.0,0.0,95,0.00,,,0.00,WeatherCatV1.20B785,2013-08-03 13:51:00,
2013-08-03 09:56:00,67.9,65.8,30.01,ESE,112,0.0,0.0,93,0.00,,,0.00,WeatherCatV1.20B785,2013-08-03 13:56:00,
2013-08-03 10:01:00,68.4,66.3,30.01,ESE,112,0.0,0.0,93,0.00,,,0.00,WeatherCatV1.20B785,2013-08-03 14:01:00,
2013-08-03 10:06:00,69.0,65.9,30.01,ESE,112,0.0,0.0,90,0.00,,,0.00,WeatherCatV1.20B785,2013-08-03 14:06:00,
2013-08-03 10:11:00,69.5,66.8,30.01,ESE,112,0.0,0.0,91,0.00,,,0.00,WeatherCatV1.20B785,2013-08-03 14:11:00,
2013-08-03 10:16:00,69.8,66.7,30.02,ESE,111,0.0,0.0,90,0.00,,,0.00,WeatherCatV1.20B785,2013-08-03 14:16:00,
2013-08-03 10:21:00,70.2,67.1,30.02,ESE,112,0.0,0.0,90,0.00,,,0.00,WeatherCatV1.20B785,2013-08-03 14:21:00,
2013-08-03 10:26:00,70.7,67.0,30.01,ESE,112,0.0,0.0,88,0.00,,,0.00,WeatherCatV1.20B785,2013-08-03 14:26:00,
2013-08-03 10:31:00,71.4,66.7,30.01,ESE,113,0.0,1.0,85,0.00,,,0.00,WeatherCatV1.20B785,2013-08-03 14:31:00,
2013-08-03 10:36:00,71.9,67.1,30.01,ESE,108,0.0,0.0,85,0.00,,,0.00,WeatherCatV1.20B785,2013-08-03 14:36:00,
2013-08-03 10:41:00,72.1,66.3,30.00,ESE,108,0.0,0.0,82,0.00,,,0.00,WeatherCatV1.20B785,2013-08-03 14:41:00,
2013-08-03 10:46:00,72.6,66.1,30.01,SE,124,0.0,0.0,80,0.00,,,0.00,WeatherCatV1.20B785,2013-08-03 14:46:00,
2013-08-03 10:51:00,72.7,66.5,30.01,SE,124,0.0,0.0,81,0.00,,,0.00,WeatherCatV1.20B785,2013-08-03 14:51:00,
2013-08-03 10:56:00,72.9,66.4,30.01,SE,146,0.0,0.0,80,0.00,,,0.00,WeatherCatV1.20B785,2013-08-03 14:56:00,
2013-08-03 11:01:00,73.3,66.0,30.01,East,94,0.0,0.0,78,0.00,,,0.00,WeatherCatV1.20B785,2013-08-03 15:01:00,
2013-08-03 11:06:00,73.8,66.1,30.01,East,88,0.0,0.0,77,0.00,,,0.00,WeatherCatV1.20B785,2013-08-03 15:06:00,
2013-08-03 11:11:00,73.8,66.5,30.00,East,88,0.0,0.0,78,0.00,,,0.00,WeatherCatV1.20B785,2013-08-03 15:11:00,
2013-08-03 11:16:00,74.0,67.1,30.00,ESE,120,0.0,1.0,79,0.00,,,0.00,WeatherCatV1.20B785,2013-08-03 15:16:00,
2013-08-03 11:21:00,74.2,66.5,30.00,ESE,120,0.0,0.0,77,0.00,,,0.00,WeatherCatV1.20B785,2013-08-03 15:21:00,
2013-08-03 11:26:00,74.7,66.2,30.00,ESE,120,0.0,0.0,75,0.00,,,0.00,WeatherCatV1.20B785,2013-08-03 15:26:00,
2013-08-03 11:31:00,75.1,67.0,30.01,ESE,120,0.0,0.0,76,0.00,,,0.00,WeatherCatV1.20B785,2013-08-03 15:31:00,
2013-08-03 11:36:00,75.3,66.8,30.01,ESE,119,0.0,0.0,75,0.00,,,0.00,WeatherCatV1.20B785,2013-08-03 15:36:00,
2013-08-03 11:41:00,75.3,66.4,30.01,ESE,119,0.0,0.0,74,0.00,,,0.00,WeatherCatV1.20B785,2013-08-03 15:41:00,
2013-08-03 11:46:00,75.7,65.6,30.00,SE,136,1.0,1.0,71,0.00,,,0.00,WeatherCatV1.20B785,2013-08-03 15:46:00,
2013-08-03 11:51:00,75.9,66.6,30.00,ESE,117,0.0,2.0,73,0.00,,,0.00,WeatherCatV1.20B785,2013-08-03 15:51:00,
2013-08-03 11:56:00,76.2,66.9,30.00,ESE,117,0.0,0.0,73,0.00,,,0.00,WeatherCatV1.20B785,2013-08-03 15:56:00,
2013-08-03 12:01:00,76.2,67.3,30.00,ESE,116,0.0,0.0,74,0.00,,,0.00,WeatherCatV1.20B785,2013-08-03 16:01:00,
2013-08-03 12:06:00,76.2,66.5,30.00,ESE,116,0.0,0.0,72,0.00,,,0.00,WeatherCatV1.20B785,2013-08-03 16:06:00,
2013-08-03 12:11:00,76.4,66.7,30.00,SE,129,0.0,0.0,72,0.00,,,0.00,WeatherCatV1.20B785,2013-08-03 16:11:00,
2013-08-03 12:16:00,77.1,66.5,30.00,SE,129,0.0,0.0,70,0.00,,,0.00,WeatherCatV1.20B785,2013-08-03 16:16:00,
2013-08-03 12:21:00,77.0,66.0,30.00,SE,143,0.0,0.0,69,0.00,,,0.00,WeatherCatV1.20B785,2013-08-03 16:21:00,
2013-08-03 12:26:00,77.1,67.4,30.00,SE,143,0.0,1.0,72,0.00,,,0.00,WeatherCatV1.20B785,2013-08-03 16:26:00,
2013-08-03 12:31:00,77.4,66.4,30.00,ESE,109,0.0,1.0,69,0.00,,,0.00,WeatherCatV1.20B785,2013-08-03 16:31:00,
2013-08-03 12:36:00,77.5,67.3,30.00,ESE,109,0.0,0.0,71,0.00,,,0.00,WeatherCatV1.20B785,2013-08-03 16:36:00,
2013-08-03 12:41:00,77.5,66.1,30.00,ESE,105,0.0,2.0,68,0.00,,,0.00,WeatherCatV1.20B785,2013-08-03 16:41:00,
2013-08-03 12:46:00,78.1,67.1,30.00,ESE,122,0.0,2.0,69,0.00,,,0.00,WeatherCatV1.20B785,2013-08-03 16:46:00,
2013-08-03 12:51:00,78.3,66.4,30.00,SE,132,1.0,2.0,67,0.00,,,0.00,WeatherCatV1.20B785,2013-08-03 16:51:00,
2013-08-03 12:56:00,78.7,65.9,30.00,ESE,104,0.0,0.0,65,0.00,,,0.00,WeatherCatV1.20B785,2013-08-03 16:56:00,
2013-08-03 13:01:00,78.9,65.7,30.00,SE,132,0.0,1.0,64,0.00,,,0.00,WeatherCatV1.20B785,2013-08-03 17:01:00,
2013-08-03 13:07:00,79.7,66.9,30.00,NE,52,1.0,2.0,65,0.00,,,0.00,WeatherCatV1.20B785,2013-08-03 17:07:00,
2013-08-03 13:12:00,80.0,64.4,30.00,SE,139,0.0,1.0,59,0.00,,,0.00,WeatherCatV1.20B785,2013-08-03 17:12:00,
2013-08-03 13:17:00,80.1,64.9,30.00,East,91,0.0,1.0,60,0.00,,,0.00,WeatherCatV1.20B785,2013-08-03 17:17:00,
2013-08-03 13:22:00,80.5,66.3,30.00,SE,129,0.0,0.0,62,0.00,,,0.00,WeatherCatV1.20B785,2013-08-03 17:22:00,
2013-08-03 13:27:00,80.4,65.2,30.00,ESE,109,0.0,1.0,60,0.00,,,0.00,WeatherCatV1.20B785,2013-08-03 17:27:00,
2013-08-03 13:32:00,80.4,65.7,30.00,ESE,109,0.0,1.0,61,0.00,,,0.00,WeatherCatV1.20B785,2013-08-03 17:32:00,
2013-08-03 13:37:00,80.5,65.3,30.00,ESE,104,1.0,2.0,60,0.00,,,0.00,WeatherCatV1.20B785,2013-08-03 17:37:00,
2013-08-03 13:42:00,81.1,64.4,30.00,ENE,76,0.0,1.0,57,0.00,,,0.00,WeatherCatV1.20B785,2013-08-03 17:42:00,
2013-08-03 13:47:00,81.9,67.1,29.99,East,83,0.0,0.0,61,0.00,,,0.00,WeatherCatV1.20B785,2013-08-03 17:47:00,
2013-08-03 13:52:00,81.3,64.1,30.00,ESE,114,0.0,0.0,56,0.00,,,0.00,WeatherCatV1.20B785,2013-08-03 17:52:00,
2013-08-03 13:57:00,81.5,64.8,29.99,ESE,114,0.0,0.0,57,0.00,,,0.00,WeatherCatV1.20B785,2013-08-03 17:57:00,
2013-08-03 14:02:00,81.8,66.0,29.99,East,79,0.0,1.0,59,0.00,,,0.00,WeatherCatV1.20B785,2013-08-03 18:02:00,
2013-08-03 14:07:00,81.8,66.0,29.99,NNW,333,1.0,1.0,59,0.00,,,0.00,WeatherCatV1.20B785,2013-08-03 18:07:00,
2013-08-03 14:12:00,81.9,65.1,29.99,SE,129,0.0,0.0,57,0.00,,,0.00,WeatherCatV1.20B785,2013-08-03 18:12:00,
2013-08-03 14:17:00,82.0,65.7,29.99,SE,128,0.0,0.0,58,0.00,,,0.00,WeatherCatV1.20B785,2013-08-03 18:17:00,
2013-08-03 14:22:00,82.2,65.9,29.98,ESE,109,1.0,2.0,58,0.00,,,0.00,WeatherCatV1.20B785,2013-08-03 18:22:00,
2013-08-03 14:27:00,82.7,67.4,29.98,NNE,27,0.0,1.0,60,0.00,,,0.00,WeatherCatV1.20B785,2013-08-03 18:27:00,
2013-08-03 14:32:00,83.6,65.7,29.98,ENE,75,1.0,2.0,55,0.00,,,0.00,WeatherCatV1.20B785,2013-08-03 18:32:00,
2013-08-03 14:37:00,84.0,65.5,29.98,SE,129,1.0,2.0,54,0.00,,,0.00,WeatherCatV1.20B785,2013-08-03 18:37:00,
2013-08-03 14:42:00,83.7,66.3,29.98,SE,126,0.0,0.0,56,0.00,,,0.00,WeatherCatV1.20B785,2013-08-03 18:42:00,
2013-08-03 14:47:00,83.6,65.2,29.98,NW,304,0.0,3.0,54,0.00,,,0.00,WeatherCatV1.20B785,2013-08-03 18:47:00,
2013-08-03 14:52:00,83.9,66.0,29.98,ENE,69,0.0,1.0,55,0.00,,,0.00,WeatherCatV1.20B785,2013-08-03 18:52:00,
2013-08-03 14:57:00,84.1,65.1,29.97,ENE,63,0.0,1.0,53,0.00,,,0.00,WeatherCatV1.20B785,2013-08-03 18:57:00,
2013-08-03 15:02:00,83.3,65.4,29.97,ESE,111,0.0,1.0,55,0.00,,,0.00,WeatherCatV1.20B785,2013-08-03 19:02:00,
2013-08-03 15:07:00,82.9,65.0,29.97,ESE,110,0.0,1.0,55,0.00,,,0.00,WeatherCatV1.20B785,2013-08-03 19:07:00,
2013-08-03 15:12:00,83.0,68.1,29.97,East,88,0.0,0.0,61,0.00,,,0.00,WeatherCatV1.20B785,2013-08-03 19:12:00,
2013-08-03 15:17:00,83.0,68.1,29.97,East,101,1.0,2.0,61,0.00,,,0.00,WeatherCatV1.20B785,2013-08-03 19:17:00,
2013-08-03 15:22:00,82.9,66.6,29.97,SE,125,0.0,1.0,58,0.00,,,0.00,WeatherCatV1.20B785,2013-08-03 19:22:00,
2013-08-03 15:27:00,82.8,66.0,29.97,SSE,155,0.0,2.0,57,0.00,,,0.00,WeatherCatV1.20B785,2013-08-03 19:27:00,
2013-08-03 15:32:00,82.8,65.5,29.97,SE,141,1.0,2.0,56,0.00,,,0.00,WeatherCatV1.20B785,2013-08-03 19:32:00,
2013-08-03 15:37:00,82.8,67.5,29.97,SE,141,0.0,0.0,60,0.00,,,0.00,WeatherCatV1.20B785,2013-08-03 19:37:00,
2013-08-03 15:42:00,82.6,64.2,29.97,ESE,109,0.0,3.0,54,0.00,,,0.00,WeatherCatV1.20B785,2013-08-03 19:42:00,
2013-08-03 15:47:00,82.7,64.9,29.97,SE,133,1.0,2.0,55,0.00,,,0.00,WeatherCatV1.20B785,2013-08-03 19:47:00,
2013-08-03 15:52:00,82.3,65.5,29.97,ESE,109,0.0,0.0,57,0.00,,,0.00,WeatherCatV1.20B785,2013-08-03 19:52:00,
2013-08-03 15:57:00,82.3,64.5,29.97,NE,53,0.0,0.0,55,0.00,,,0.00,WeatherCatV1.20B785,2013-08-03 19:57:00,
2013-08-03 16:02:00,82.0,65.2,29.97,SE,136,0.0,2.0,57,0.00,,,0.00,WeatherCatV1.20B785,2013-08-03 20:02:00,
2013-08-03 16:07:00,81.5,65.8,29.97,NE,55,0.0,1.0,59,0.00,,,0.00,WeatherCatV1.20B785,2013-08-03 20:07:00,
2013-08-03 16:12:00,81.4,66.2,29.97,SE,143,0.0,1.0,60,0.00,,,0.00,WeatherCatV1.20B785,2013-08-03 20:12:00,
2013-08-03 16:17:00,81.3,66.1,29.97,ESE,108,1.0,2.0,60,0.00,,,0.00,WeatherCatV1.20B785,2013-08-03 20:17:00,
2013-08-03 16:22:00,80.6,65.9,29.97,East,91,0.0,0.0,61,0.00,,,0.00,WeatherCatV1.20B785,2013-08-03 20:22:00,
2013-08-03 16:27:00,80.5,65.8,29.97,SE,139,0.0,0.0,61,0.00,,,0.00,WeatherCatV1.20B785,2013-08-03 20:27:00,
2013-08-03 16:32:00,80.5,66.3,29.97,ENE,64,0.0,1.0,62,0.00,,,0.00,WeatherCatV1.20B785,2013-08-03 20:32:00,
2013-08-03 16:37:00,80.8,66.5,29.96,East,98,0.0,2.0,62,0.00,,,0.00,WeatherCatV1.20B785,2013-08-03 20:37:00,
2013-08-03 16:42:00,81.0,67.7,29.97,ESE,121,0.0,0.0,64,0.00,,,0.00,WeatherCatV1.20B785,2013-08-03 20:42:00,
2013-08-03 16:47:00,80.6,66.3,29.96,SSE,158,0.0,2.0,62,0.00,,,0.00,WeatherCatV1.20B785,2013-08-03 20:47:00,
2013-08-03 16:52:00,80.1,65.4,29.97,NNW,330,1.0,1.0,61,0.00,,,0.00,WeatherCatV1.20B785,2013-08-03 20:52:00,
2013-08-03 16:57:00,79.6,65.4,29.96,ESE,121,2.0,3.0,62,0.00,,,0.00,WeatherCatV1.20B785,2013-08-03 20:57:00,
2013-08-03 17:02:00,79.3,65.6,29.96,ESE,106,0.0,2.0,63,0.00,,,0.00,WeatherCatV1.20B785,2013-08-03 21:02:00,
2013-08-03 17:07:00,78.6,65.4,29.96,East,98,0.0,0.0,64,0.00,,,0.00,WeatherCatV1.20B785,2013-08-03 21:07:00,
2013-08-03 17:12:00,78.3,65.5,29.96,ESE,106,0.0,0.0,65,0.00,,,0.00,WeatherCatV1.20B785,2013-08-03 21:12:00,
2013-08-03 17:17:00,78.2,66.8,29.96,ENE,68,0.0,0.0,68,0.00,,,0.00,WeatherCatV1.20B785,2013-08-03 21:17:00,
2013-08-03 17:22:00,77.9,66.5,29.97,SSE,165,0.0,0.0,68,0.00,,,0.00,WeatherCatV1.20B785,2013-08-03 21:22:00,
2013-08-03 17:27:00,77.4,66.0,29.97,SE,140,0.0,3.0,68,0.00,,,0.00,WeatherCatV1.20B785,2013-08-03 21:27:00,
2013-08-03 17:32:00,77.1,67.4,29.97,SE,139,0.0,0.0,72,0.00,,,0.00,WeatherCatV1.20B785,2013-08-03 21:32:00,
2013-08-03 17:37:00,76.7,66.2,29.96,SE,128,0.0,0.0,70,0.00,,,0.00,WeatherCatV1.20B785,2013-08-03 21:37:00,
2013-08-03 17:42:00,76.7,66.6,29.96,ESE,114,0.0,1.0,71,0.00,,,0.00,WeatherCatV1.20B785,2013-08-03 21:42:00,
2013-08-03 17:47:00,76.8,67.1,29.96,ESE,114,0.0,0.0,72,0.00,,,0.00,WeatherCatV1.20B785,2013-08-03 21:47:00,
2013-08-03 17:52:00,77.1,66.5,29.96,ESE,113,0.0,0.0,70,0.00,,,0.00,WeatherCatV1.20B785,2013-08-03 21:52:00,
2013-08-03 17:57:00,77.7,67.5,29.96,ESE,108,0.0,0.0,71,0.00,,,0.00,WeatherCatV1.20B785,2013-08-03 21:57:00,
2013-08-03 18:02:00,77.9,67.7,29.95,ESE,108,0.0,0.0,71,0.00,,,0.00,WeatherCatV1.20B785,2013-08-03 22:02:00,
2013-08-03 18:07:00,77.6,67.4,29.96,ESE,108,0.0,0.0,71,0.00,,,0.00,WeatherCatV1.20B785,2013-08-03 22:07:00,
2013-08-03 18:12:00,77.3,66.3,29.96,East,98,1.0,3.0,69,0.00,,,0.00,WeatherCatV1.20B785,2013-08-03 22:12:00,
2013-08-03 18:17:00,77.1,66.9,29.96,SSE,162,0.0,0.0,71,0.00,,,0.00,WeatherCatV1.20B785,2013-08-03 22:17:00,
2013-08-03 18:22:00,76.9,66.8,29.96,SE,131,0.0,1.0,71,0.00,,,0.00,WeatherCatV1.20B785,2013-08-03 22:22:00,
2013-08-03 18:27:00,76.8,67.1,29.96,East,87,0.0,0.0,72,0.00,,,0.00,WeatherCatV1.20B785,2013-08-03 22:27:00,
2013-08-03 18:32:00,76.6,66.9,29.96,ESE,119,0.0,1.0,72,0.00,,,0.00,WeatherCatV1.20B785,2013-08-03 22:32:00,
2013-08-03 18:37:00,76.3,67.0,29.95,ENE,78,0.0,0.0,73,0.00,,,0.00,WeatherCatV1.20B785,2013-08-03 22:37:00,
2013-08-03 18:42:00,76.3,66.6,29.96,SE,136,0.0,0.0,72,0.00,,,0.00,WeatherCatV1.20B785,2013-08-03 22:42:00,
2013-08-03 18:47:00,76.4,67.1,29.95,SE,136,0.0,0.0,73,0.00,,,0.00,WeatherCatV1.20B785,2013-08-03 22:47:00,
2013-08-03 18:52:00,76.4,67.1,29.95,SE,136,0.0,0.0,73,0.00,,,0.00,WeatherCatV1.20B785,2013-08-03 22:52:00,
2013-08-03 18:57:00,76.5,67.2,29.95,SSE,149,0.0,0.0,73,0.00,,,0.00,WeatherCatV1.20B785,2013-08-03 22:57:00,
2013-08-03 19:02:00,76.3,67.0,29.95,East,96,0.0,0.0,73,0.00,,,0.00,WeatherCatV1.20B785,2013-08-03 23:02:00,
2013-08-03 19:07:00,76.2,66.9,29.95,NE,49,0.0,1.0,73,0.00,,,0.00,WeatherCatV1.20B785,2013-08-03 23:07:00,
2013-08-03 19:12:00,76.1,67.2,29.95,East,87,0.0,0.0,74,0.00,,,0.00,WeatherCatV1.20B785,2013-08-03 23:12:00,
2013-08-03 19:17:00,75.9,67.4,29.95,East,91,0.0,0.0,75,0.00,,,0.00,WeatherCatV1.20B785,2013-08-03 23:17:00,
2013-08-03 19:22:00,75.7,67.2,29.96,ESE,110,0.0,0.0,75,0.00,,,0.00,WeatherCatV1.20B785,2013-08-03 23:22:00,
2013-08-03 19:27:00,75.5,66.6,29.96,SE,143,0.0,1.0,74,0.00,,,0.00,WeatherCatV1.20B785,2013-08-03 23:27:00,
2013-08-03 19:32:00,75.4,67.3,29.96,East,82,0.0,0.0,76,0.00,,,0.00,WeatherCatV1.20B785,2013-08-03 23:32:00,
2013-08-03 19:37:00,75.2,67.5,29.96,East,82,0.0,0.0,77,0.00,,,0.00,WeatherCatV1.20B785,2013-08-03 23:37:00,
2013-08-03 19:42:00,75.0,66.9,29.96,East,88,0.0,0.0,76,0.00,,,0.00,WeatherCatV1.20B785,2013-08-03 23:42:00,
2013-08-03 19:47:00,74.7,67.0,29.96,East,88,0.0,0.0,77,0.00,,,0.00,WeatherCatV1.20B785,2013-08-03 23:47:00,
2013-08-03 19:52:00,74.4,67.1,29.96,East,88,0.0,0.0,78,0.00,,,0.00,WeatherCatV1.20B785,2013-08-03 23:52:00,
2013-08-03 19:57:00,74.0,67.1,29.96,East,88,0.0,0.0,79,0.00,,,0.00,WeatherCatV1.20B785,2013-08-03 23:57:00,
2013-08-03 20:02:00,73.7,67.1,29.96,East,88,0.0,0.0,80,0.00,,,0.00,WeatherCatV1.20B785,2013-08-04 00:02:00,
2013-08-03 20:07:00,73.3,67.1,29.97,East,88,0.0,0.0,81,0.00,,,0.00,WeatherCatV1.20B785,2013-08-04 00:07:00,
2013-08-03 20:12:00,72.9,67.1,29.96,East,88,0.0,0.0,82,0.00,,,0.00,WeatherCatV1.20B785,2013-08-04 00:12:00,
2013-08-03 20:17:00,72.4,66.9,29.96,East,88,0.0,0.0,83,0.00,,,0.00,WeatherCatV1.20B785,2013-08-04 00:17:00,
2013-08-03 20:22:00,72.1,67.0,29.96,East,88,0.0,0.0,84,0.00,,,0.00,WeatherCatV1.20B785,2013-08-04 00:22:00,
2013-08-03 20:27:00,71.7,66.9,29.96,East,88,0.0,0.0,85,0.00,,,0.00,WeatherCatV1.20B785,2013-08-04 00:27:00,
2013-08-03 20:32:00,71.4,67.0,29.96,East,88,0.0,0.0,86,0.00,,,0.00,WeatherCatV1.20B785,2013-08-04 00:32:00,
2013-08-03 20:37:00,71.1,66.7,29.96,East,88,0.0,0.0,86,0.00,,,0.00,WeatherCatV1.20B785,2013-08-04 00:37:00,
2013-08-03 20:42:00,71.0,66.9,29.97,East,88,0.0,0.0,87,0.00,,,0.00,WeatherCatV1.20B785,2013-08-04 00:42:00,
2013-08-03 20:47:00,70.8,66.7,29.96,East,88,0.0,0.0,87,0.00,,,0.00,WeatherCatV1.20B785,2013-08-04 00:47:00,
2013-08-03 20:52:00,70.6,66.9,29.96,East,88,0.0,0.0,88,0.00,,,0.00,WeatherCatV1.20B785,2013-08-04 00:52:00,
2013-08-03 20:57:00,70.5,66.8,29.96,East,88,0.0,0.0,88,0.00,,,0.00,WeatherCatV1.20B785,2013-08-04 00:57:00,
2013-08-03 21:02:00,70.3,66.6,29.97,East,88,0.0,0.0,88,0.00,,,0.00,WeatherCatV1.20B785,2013-08-04 01:02:00,
2013-08-03 21:07:00,70.2,66.8,29.97,East,88,0.0,0.0,89,0.00,,,0.00,WeatherCatV1.20B785,2013-08-04 01:07:00,
2013-08-03 21:12:00,70.1,66.7,29.97,East,88,0.0,0.0,89,0.00,,,0.00,WeatherCatV1.20B785,2013-08-04 01:12:00,
2013-08-03 21:17:00,69.9,66.5,29.97,East,88,0.0,0.0,89,0.00,,,0.00,WeatherCatV1.20B785,2013-08-04 01:17:00,
2013-08-03 21:22:00,69.8,66.4,29.98,East,88,0.0,0.0,89,0.00,,,0.00,WeatherCatV1.20B785,2013-08-04 01:22:00,
2013-08-03 21:27:00,69.6,66.2,29.98,East,88,0.0,0.0,89,0.00,,,0.00,WeatherCatV1.20B785,2013-08-04 01:27:00,
2013-08-03 21:32:00,69.5,66.4,29.98,East,88,0.0,0.0,90,0.00,,,0.00,WeatherCatV1.20B785,2013-08-04 01:32:00,
2013-08-03 21:37:00,69.3,66.2,29.98,East,88,0.0,0.0,90,0.00,,,0.00,WeatherCatV1.20B785,2013-08-04 01:37:00,
2013-08-03 21:42:00,69.1,66.0,29.98,East,88,0.0,0.0,90,0.00,,,0.00,WeatherCatV1.20B785,2013-08-04 01:42:00,
2013-08-03 21:47:00,69.0,66.3,29.98,East,88,0.0,0.0,91,0.00,,,0.00,WeatherCatV1.20B785,2013-08-04 01:47:00,
2013-08-03 21:52:00,68.9,66.2,29.98,East,88,0.0,0.0,91,0.00,,,0.00,WeatherCatV1.20B785,2013-08-04 01:52:00,
2013-08-03 21:57:00,68.8,66.1,29.98,East,89,0.0,0.0,91,0.00,,,0.00,WeatherCatV1.20B785,2013-08-04 01:57:00,
2013-08-03 22:02:00,68.8,66.1,29.98,East,88,0.0,0.0,91,0.00,,,0.00,WeatherCatV1.20B785,2013-08-04 02:02:00,
2013-08-03 22:07:00,68.7,66.3,29.98,East,88,0.0,0.0,92,0.00,,,0.00,WeatherCatV1.20B785,2013-08-04 02:07:00,
2013-08-03 22:12:00,68.5,66.1,29.98,East,89,0.0,0.0,92,0.00,,,0.00,WeatherCatV1.20B785,2013-08-04 02:12:00,
2013-08-03 22:17:00,68.3,65.9,29.99,East,88,0.0,0.0,92,0.00,,,0.00,WeatherCatV1.20B785,2013-08-04 02:17:00,
2013-08-03 22:22:00,68.1,66.0,29.99,East,88,0.0,0.0,93,0.00,,,0.00,WeatherCatV1.20B785,2013-08-04 02:22:00,
2013-08-03 22:27:00,68.0,65.9,29.99,East,89,0.0,0.0,93,0.00,,,0.00,WeatherCatV1.20B785,2013-08-04 02:27:00,
2013-08-03 22:32:00,67.8,65.7,30.00,East,88,0.0,0.0,93,0.00,,,0.00,WeatherCatV1.20B785,2013-08-04 02:32:00,
2013-08-03 22:37:00,67.8,65.7,30.00,East,88,0.0,0.0,93,0.00,,,0.00,WeatherCatV1.20B785,2013-08-04 02:37:00,
2013-08-03 22:42:00,67.8,65.7,30.00,East,88,0.0,0.0,93,0.00,,,0.00,WeatherCatV1.20B785,2013-08-04 02:42:00,
2013-08-03 22:47:00,68.0,65.9,29.99,East,88,0.0,0.0,93,0.00,,,0.00,WeatherCatV1.20B785,2013-08-04 02:47:00,
2013-08-03 22:52:00,68.3,66.2,29.99,East,88,0.0,0.0,93,0.00,,,0.00,WeatherCatV1.20B785,2013-08-04 02:52:00,
2013-08-03 22:57:00,68.4,66.3,29.99,East,88,0.0,0.0,93,0.00,,,0.00,WeatherCatV1.20B785,2013-08-04 02:57:00,
2013-08-03 23:02:00,68.4,66.3,29.99,East,88,0.0,0.0,93,0.00,,,0.00,WeatherCatV1.20B785,2013-08-04 03:02:00,
2013-08-03 23:07:00,68.3,66.2,29.99,East,88,0.0,0.0,93,0.00,,,0.00,WeatherCatV1.20B785,2013-08-04 03:07:00,
2013-08-03 23:12:00,68.2,66.1,29.99,East,88,0.0,0.0,93,0.00,,,0.00,WeatherCatV1.20B785,2013-08-04 03:12:00,
2013-08-03 23:17:00,68.1,66.0,29.99,East,88,0.0,0.0,93,0.00,,,0.00,WeatherCatV1.20B785,2013-08-04 03:17:00,
2013-08-03 23:22:00,68.0,65.9,29.99,East,88,0.0,0.0,93,0.00,,,0.00,WeatherCatV1.20B785,2013-08-04 03:22:00,
2013-08-03 23:27:00,67.8,65.7,29.99,East,88,0.0,0.0,93,0.00,,,0.00,WeatherCatV1.20B785,2013-08-04 03:27:00,
2013-08-03 23:32:00,67.7,65.9,29.98,East,88,0.0,0.0,94,0.00,,,0.00,WeatherCatV1.20B785,2013-08-04 03:32:00,
2013-08-03 23:37:00,67.5,65.7,29.98,East,88,0.0,0.0,94,0.00,,,0.00,WeatherCatV1.20B785,2013-08-04 03:37:00,
2013-08-03 23:42:00,67.4,65.6,29.98,East,88,0.0,0.0,94,0.00,,,0.00,WeatherCatV1.20B785,2013-08-04 03:42:00,
2013-08-03 23:47:00,67.2,65.4,29.98,East,88,0.0,0.0,94,0.00,,,0.00,WeatherCatV1.20B785,2013-08-04 03:47:00,
2013-08-03 23:52:00,67.1,65.3,29.98,East,88,0.0,0.0,94,0.00,,,0.00,WeatherCatV1.20B785,2013-08-04 03:52:00,
2013-08-03 23:57:00,67.0,65.2,29.98,East,88,0.0,0.0,94,0.00,,,0.00,WeatherCatV1.20B785,2013-08-04 03:57:00,